Accueil
METAR-TAF:

METAR-TAF

Aéroports :

Aéroport de Saragosse

Saragosse, Espagne

latitude: 41-40N, longitude: 001-01W, altitude: 263 m

Observation

Le bulletin a été fait il y a 28 minutes, à 05:30 UTC
Vent 2 kt de sud-est
Température -1°C
Humidité 86%
Pression 1028 hPa
Visibilité 10 km ou plus
pas de nuages en-dessous de 1500 mètres et pas de cumulonimbus.

METAR: LEZG 240530Z 14002KT CAVOK M01/M03 Q1028

Heure: 06:58 (05:58 UTC)

Prévision

Le bulletin a été fait il y a 58 minutes, à 05:00 UTC
Prévision valable du 24 à 06 UTC au 25 à 06 UTC
Vent 5 kt de est
Visibilité 10 km ou plus
Quelques nuages à une hauteur de 1000 ft
Probabilité 30% :
Temporairement
du 24 à 06 UTC au 24 à 12 UTC
Nuages fragmentés à une hauteur de 500 ft

TAF: LEZG 240500Z 2406/2506 10005KT 9999 FEW010 TX11/2413Z TNM00/2406Z PROB30 TEMPO 2406/2412 BKN005

Observations et prévisions météorologiques de plus de 4000 aéroports (messages METAR et TAF).

Les stations disponibles sont représentées par des disques jaunes et rouges sur la carte.

Passer la souris dessus pour voir le nom de la station.

Cliquer dessus pour voir les observations et prévisions météorologiques.

Pour changer de carte: cliquez sur les boutons verts avec une croix noire pour zoomer, sur le bouton vert avec un tiret pour effectuer un zoom arrière, ou sur les flèches vertes pour les cartes adjacentes.


METAR-TAF: